sensor_id;sensor_type;location;lat;lon;timestamp;P1;durP1;ratioP1;P2;durP2;ratioP2
9848;SDS011;4963;51.444;6.528;2023-10-31T00:02:08;2.10;;;1.70;;
9848;SDS011;4963;51.444;6.528;2023-10-31T00:04:37;2.30;;;2.10;;
9848;SDS011;4963;51.444;6.528;2023-10-31T00:07:04;2.50;;;2.30;;
9848;SDS011;4963;51.444;6.528;2023-10-31T00:09:31;3.00;;;2.63;;
9848;SDS011;4963;51.444;6.528;2023-10-31T00:11:58;6.53;;;3.37;;
9848;SDS011;4963;51.444;6.528;2023-10-31T00:14:24;3.50;;;3.20;;
9848;SDS011;4963;51.444;6.528;2023-10-31T00:16:52;3.67;;;3.37;;
9848;SDS011;4963;51.444;6.528;2023-10-31T00:19:19;3.50;;;3.20;;
9848;SDS011;4963;51.444;6.528;2023-10-31T00:21:47;2.60;;;2.40;;
9848;SDS011;4963;51.444;6.528;2023-10-31T00:24:14;3.40;;;2.53;;
9848;SDS011;4963;51.444;6.528;2023-10-31T00:26:40;3.20;;;2.40;;
9848;SDS011;4963;51.444;6.528;2023-10-31T00:29:07;2.60;;;2.27;;
9848;SDS011;4963;51.444;6.528;2023-10-31T00:31:34;2.87;;;2.03;;
9848;SDS011;4963;51.444;6.528;2023-10-31T00:34:01;1.67;;;1.50;;
9848;SDS011;4963;51.444;6.528;2023-10-31T00:36:28;1.93;;;1.50;;
9848;SDS011;4963;51.444;6.528;2023-10-31T00:38:56;1.63;;;1.33;;
9848;SDS011;4963;51.444;6.528;2023-10-31T00:41:23;1.77;;;1.20;;
9848;SDS011;4963;51.444;6.528;2023-10-31T00:43:50;1.53;;;1.23;;
9848;SDS011;4963;51.444;6.528;2023-10-31T00:46:17;2.20;;;1.83;;
9848;SDS011;4963;51.444;6.528;2023-10-31T00:48:43;3.03;;;1.83;;
9848;SDS011;4963;51.444;6.528;2023-10-31T00:51:10;2.47;;;1.67;;
9848;SDS011;4963;51.444;6.528;2023-10-31T00:53:37;2.10;;;1.60;;
9848;SDS011;4963;51.444;6.528;2023-10-31T00:56:06;2.50;;;1.97;;
9848;SDS011;4963;51.444;6.528;2023-10-31T00:58:33;2.83;;;2.20;;
9848;SDS011;4963;51.444;6.528;2023-10-31T01:01:00;4.90;;;2.70;;
9848;SDS011;4963;51.444;6.528;2023-10-31T01:03:30;4.73;;;3.27;;
9848;SDS011;4963;51.444;6.528;2023-10-31T01:05:57;4.30;;;3.20;;
9848;SDS011;4963;51.444;6.528;2023-10-31T01:08:23;7.57;;;4.23;;
9848;SDS011;4963;51.444;6.528;2023-10-31T01:10:50;6.87;;;5.27;;
9848;SDS011;4963;51.444;6.528;2023-10-31T01:13:18;6.07;;;5.33;;
9848;SDS011;4963;51.444;6.528;2023-10-31T01:15:46;6.17;;;5.03;;
9848;SDS011;4963;51.444;6.528;2023-10-31T01:18:13;7.23;;;5.93;;
9848;SDS011;4963;51.444;6.528;2023-10-31T01:20:40;7.77;;;6.07;;
9848;SDS011;4963;51.444;6.528;2023-10-31T01:23:07;7.63;;;6.00;;
9848;SDS011;4963;51.444;6.528;2023-10-31T01:25:34;6.83;;;6.23;;
9848;SDS011;4963;51.444;6.528;2023-10-31T01:28:01;6.10;;;5.57;;
9848;SDS011;4963;51.444;6.528;2023-10-31T01:30:29;7.33;;;6.23;;
9848;SDS011;4963;51.444;6.528;2023-10-31T01:32:56;6.87;;;6.27;;
9848;SDS011;4963;51.444;6.528;2023-10-31T01:35:23;8.70;;;6.90;;
9848;SDS011;4963;51.444;6.528;2023-10-31T01:37:49;7.53;;;6.80;;
9848;SDS011;4963;51.444;6.528;2023-10-31T01:40:16;7.80;;;7.00;;
9848;SDS011;4963;51.444;6.528;2023-10-31T01:42:43;7.60;;;6.90;;
9848;SDS011;4963;51.444;6.528;2023-10-31T01:45:10;7.73;;;7.03;;
9848;SDS011;4963;51.444;6.528;2023-10-31T01:47:38;8.23;;;7.00;;
9848;SDS011;4963;51.444;6.528;2023-10-31T01:50:05;7.63;;;6.73;;
9848;SDS011;4963;51.444;6.528;2023-10-31T01:52:34;7.90;;;5.93;;
9848;SDS011;4963;51.444;6.528;2023-10-31T01:55:02;5.90;;;5.23;;
9848;SDS011;4963;51.444;6.528;2023-10-31T01:57:31;6.07;;;5.13;;
9848;SDS011;4963;51.444;6.528;2023-10-31T01:59:58;5.50;;;5.00;;
9848;SDS011;4963;51.444;6.528;2023-10-31T02:02:25;6.27;;;4.50;;
9848;SDS011;4963;51.444;6.528;2023-10-31T02:04:56;7.60;;;4.73;;
9848;SDS011;4963;51.444;6.528;2023-10-31T02:07:23;8.23;;;4.83;;
9848;SDS011;4963;51.444;6.528;2023-10-31T02:09:50;7.23;;;5.00;;
9848;SDS011;4963;51.444;6.528;2023-10-31T02:12:33;5.97;;;4.80;;
9848;SDS011;4963;51.444;6.528;2023-10-31T02:15:00;8.00;;;5.00;;
9848;SDS011;4963;51.444;6.528;2023-10-31T02:17:26;7.27;;;5.60;;
9848;SDS011;4963;51.444;6.528;2023-10-31T02:19:58;8.50;;;6.60;;
9848;SDS011;4963;51.444;6.528;2023-10-31T02:22:26;8.10;;;7.30;;
9848;SDS011;4963;51.444;6.528;2023-10-31T02:24:53;8.93;;;7.57;;
9848;SDS011;4963;51.444;6.528;2023-10-31T02:27:21;9.50;;;7.70;;
9848;SDS011;4963;51.444;6.528;2023-10-31T02:29:48;11.17;;;8.40;;
9848;SDS011;4963;51.444;6.528;2023-10-31T02:32:15;10.97;;;8.57;;
9848;SDS011;4963;51.444;6.528;2023-10-31T02:34:42;12.43;;;9.53;;
9848;SDS011;4963;51.444;6.528;2023-10-31T02:37:11;11.20;;;8.93;;
9848;SDS011;4963;51.444;6.528;2023-10-31T02:39:39;9.70;;;8.70;;
9848;SDS011;4963;51.444;6.528;2023-10-31T02:42:06;13.93;;;9.53;;
9848;SDS011;4963;51.444;6.528;2023-10-31T02:44:33;10.40;;;9.30;;
9848;SDS011;4963;51.444;6.528;2023-10-31T02:47:00;10.87;;;9.73;;
9848;SDS011;4963;51.444;6.528;2023-10-31T02:49:26;15.13;;;10.43;;
9848;SDS011;4963;51.444;6.528;2023-10-31T02:51:53;12.27;;;9.60;;
9848;SDS011;4963;51.444;6.528;2023-10-31T02:54:20;12.33;;;9.17;;
9848;SDS011;4963;51.444;6.528;2023-10-31T02:56:48;12.07;;;9.00;;
9848;SDS011;4963;51.444;6.528;2023-10-31T02:59:15;11.13;;;8.80;;
9848;SDS011;4963;51.444;6.528;2023-10-31T03:01:42;10.70;;;8.93;;
9848;SDS011;4963;51.444;6.528;2023-10-31T03:04:09;12.90;;;8.90;;
9848;SDS011;4963;51.444;6.528;2023-10-31T03:06:36;9.63;;;7.93;;
9848;SDS011;4963;51.444;6.528;2023-10-31T03:09:03;10.57;;;8.13;;
9848;SDS011;4963;51.444;6.528;2023-10-31T03:11:30;10.83;;;7.90;;
9848;SDS011;4963;51.444;6.528;2023-10-31T03:13:59;8.90;;;7.60;;
9848;SDS011;4963;51.444;6.528;2023-10-31T03:16:26;9.10;;;7.37;;
9848;SDS011;4963;51.444;6.528;2023-10-31T03:18:52;8.40;;;6.53;;
9848;SDS011;4963;51.444;6.528;2023-10-31T03:21:19;6.40;;;5.70;;
9848;SDS011;4963;51.444;6.528;2023-10-31T03:23:46;7.30;;;6.10;;
9848;SDS011;4963;51.444;6.528;2023-10-31T03:26:14;6.43;;;5.63;;
9848;SDS011;4963;51.444;6.528;2023-10-31T03:28:42;7.80;;;5.47;;
9848;SDS011;4963;51.444;6.528;2023-10-31T03:31:11;6.43;;;5.00;;
9848;SDS011;4963;51.444;6.528;2023-10-31T03:33:39;7.43;;;5.37;;
9848;SDS011;4963;51.444;6.528;2023-10-31T03:36:06;6.33;;;5.60;;
9848;SDS011;4963;51.444;6.528;2023-10-31T03:38:33;7.57;;;5.90;;
9848;SDS011;4963;51.444;6.528;2023-10-31T03:41:02;7.60;;;5.87;;
9848;SDS011;4963;51.444;6.528;2023-10-31T03:43:29;7.33;;;5.83;;
9848;SDS011;4963;51.444;6.528;2023-10-31T03:45:56;8.33;;;5.53;;
9848;SDS011;4963;51.444;6.528;2023-10-31T03:48:24;7.47;;;6.20;;
9848;SDS011;4963;51.444;6.528;2023-10-31T03:50:51;6.90;;;6.20;;
9848;SDS011;4963;51.444;6.528;2023-10-31T03:53:18;9.37;;;7.23;;
9848;SDS011;4963;51.444;6.528;2023-10-31T03:55:45;8.83;;;5.90;;
9848;SDS011;4963;51.444;6.528;2023-10-31T03:58:12;7.03;;;6.20;;
9848;SDS011;4963;51.444;6.528;2023-10-31T04:00:39;10.63;;;6.53;;
9848;SDS011;4963;51.444;6.528;2023-10-31T04:03:06;8.30;;;6.60;;
9848;SDS011;4963;51.444;6.528;2023-10-31T04:05:34;8.60;;;7.27;;
9848;SDS011;4963;51.444;6.528;2023-10-31T04:08:02;7.17;;;6.20;;
9848;SDS011;4963;51.444;6.528;2023-10-31T04:10:29;7.40;;;5.97;;
9848;SDS011;4963;51.444;6.528;2023-10-31T04:12:56;9.20;;;6.70;;
9848;SDS011;4963;51.444;6.528;2023-10-31T04:15:23;8.37;;;6.70;;
9848;SDS011;4963;51.444;6.528;2023-10-31T04:17:49;8.90;;;7.13;;
9848;SDS011;4963;51.444;6.528;2023-10-31T04:20:16;10.00;;;7.00;;
9848;SDS011;4963;51.444;6.528;2023-10-31T04:22:45;9.03;;;7.73;;
9848;SDS011;4963;51.444;6.528;2023-10-31T04:25:11;9.53;;;7.67;;
9848;SDS011;4963;51.444;6.528;2023-10-31T04:27:38;9.47;;;7.00;;
9848;SDS011;4963;51.444;6.528;2023-10-31T04:30:06;8.57;;;6.90;;
9848;SDS011;4963;51.444;6.528;2023-10-31T04:32:33;10.30;;;7.67;;
9848;SDS011;4963;51.444;6.528;2023-10-31T04:35:00;8.57;;;7.20;;
9848;SDS011;4963;51.444;6.528;2023-10-31T04:37:27;8.90;;;7.40;;
9848;SDS011;4963;51.444;6.528;2023-10-31T04:39:55;10.73;;;8.57;;
9848;SDS011;4963;51.444;6.528;2023-10-31T04:42:22;9.60;;;7.50;;
9848;SDS011;4963;51.444;6.528;2023-10-31T04:44:48;8.67;;;7.40;;
9848;SDS011;4963;51.444;6.528;2023-10-31T04:47:15;9.70;;;7.70;;
9848;SDS011;4963;51.444;6.528;2023-10-31T04:49:42;9.60;;;7.83;;
9848;SDS011;4963;51.444;6.528;2023-10-31T04:52:09;10.00;;;7.87;;
9848;SDS011;4963;51.444;6.528;2023-10-31T04:54:37;10.50;;;8.13;;
9848;SDS011;4963;51.444;6.528;2023-10-31T04:57:05;10.03;;;7.77;;
9848;SDS011;4963;51.444;6.528;2023-10-31T04:59:32;10.23;;;8.10;;
9848;SDS011;4963;51.444;6.528;2023-10-31T05:01:58;9.77;;;8.20;;
9848;SDS011;4963;51.444;6.528;2023-10-31T05:04:25;9.97;;;8.87;;
9848;SDS011;4963;51.444;6.528;2023-10-31T05:06:52;10.37;;;8.27;;
9848;SDS011;4963;51.444;6.528;2023-10-31T05:09:19;10.50;;;9.20;;
9848;SDS011;4963;51.444;6.528;2023-10-31T05:11:46;10.87;;;9.13;;
9848;SDS011;4963;51.444;6.528;2023-10-31T05:14:14;11.07;;;9.83;;
9848;SDS011;4963;51.444;6.528;2023-10-31T05:16:41;12.97;;;9.77;;
9848;SDS011;4963;51.444;6.528;2023-10-31T05:19:08;11.47;;;10.30;;
9848;SDS011;4963;51.444;6.528;2023-10-31T05:21:35;11.10;;;9.53;;
9848;SDS011;4963;51.444;6.528;2023-10-31T05:24:02;10.60;;;9.50;;
9848;SDS011;4963;51.444;6.528;2023-10-31T05:26:29;14.07;;;10.87;;
9848;SDS011;4963;51.444;6.528;2023-10-31T05:28:57;11.40;;;10.27;;
9848;SDS011;4963;51.444;6.528;2023-10-31T05:31:25;13.67;;;10.87;;
9848;SDS011;4963;51.444;6.528;2023-10-31T05:33:52;12.47;;;10.47;;
9848;SDS011;4963;51.444;6.528;2023-10-31T05:36:19;13.90;;;10.93;;
9848;SDS011;4963;51.444;6.528;2023-10-31T05:38:46;10.97;;;9.80;;
9848;SDS011;4963;51.444;6.528;2023-10-31T05:41:13;11.10;;;10.00;;
9848;SDS011;4963;51.444;6.528;2023-10-31T05:43:40;12.60;;;10.20;;
9848;SDS011;4963;51.444;6.528;2023-10-31T05:46:07;11.67;;;9.70;;
9848;SDS011;4963;51.444;6.528;2023-10-31T05:48:38;9.83;;;8.83;;
9848;SDS011;4963;51.444;6.528;2023-10-31T05:51:10;10.40;;;9.30;;
9848;SDS011;4963;51.444;6.528;2023-10-31T05:53:38;9.83;;;8.93;;
9848;SDS011;4963;51.444;6.528;2023-10-31T05:56:06;9.63;;;8.67;;
9848;SDS011;4963;51.444;6.528;2023-10-31T05:58:36;10.10;;;8.50;;
9848;SDS011;4963;51.444;6.528;2023-10-31T06:01:03;13.87;;;9.20;;
9848;SDS011;4963;51.444;6.528;2023-10-31T06:03:30;9.07;;;8.17;;
9848;SDS011;4963;51.444;6.528;2023-10-31T06:05:58;13.30;;;8.47;;
9848;SDS011;4963;51.444;6.528;2023-10-31T06:08:25;8.70;;;7.80;;
9848;SDS011;4963;51.444;6.528;2023-10-31T06:10:54;8.23;;;7.47;;
9848;SDS011;4963;51.444;6.528;2023-10-31T06:13:22;8.83;;;7.80;;
9848;SDS011;4963;51.444;6.528;2023-10-31T06:15:50;10.50;;;8.50;;
9848;SDS011;4963;51.444;6.528;2023-10-31T06:18:17;9.23;;;8.27;;
9848;SDS011;4963;51.444;6.528;2023-10-31T06:20:44;8.60;;;7.50;;
9848;SDS011;4963;51.444;6.528;2023-10-31T06:23:13;9.47;;;8.53;;
9848;SDS011;4963;51.444;6.528;2023-10-31T06:25:39;9.20;;;8.30;;
9848;SDS011;4963;51.444;6.528;2023-10-31T06:28:06;9.73;;;8.30;;
9848;SDS011;4963;51.444;6.528;2023-10-31T06:30:33;10.83;;;8.23;;
9848;SDS011;4963;51.444;6.528;2023-10-31T06:33:00;9.60;;;8.63;;
9848;SDS011;4963;51.444;6.528;2023-10-31T06:35:27;10.13;;;9.00;;
9848;SDS011;4963;51.444;6.528;2023-10-31T06:37:54;8.07;;;7.27;;
9848;SDS011;4963;51.444;6.528;2023-10-31T06:40:24;8.20;;;7.00;;
9848;SDS011;4963;51.444;6.528;2023-10-31T06:42:51;8.50;;;6.80;;
9848;SDS011;4963;51.444;6.528;2023-10-31T06:45:19;8.40;;;7.50;;
9848;SDS011;4963;51.444;6.528;2023-10-31T06:47:46;8.10;;;7.30;;
9848;SDS011;4963;51.444;6.528;2023-10-31T06:50:12;8.57;;;7.63;;
9848;SDS011;4963;51.444;6.528;2023-10-31T06:52:42;8.97;;;8.07;;
9848;SDS011;4963;51.444;6.528;2023-10-31T06:55:09;9.20;;;8.30;;
9848;SDS011;4963;51.444;6.528;2023-10-31T06:57:37;9.23;;;8.33;;
9848;SDS011;4963;51.444;6.528;2023-10-31T07:00:04;9.93;;;8.93;;
9848;SDS011;4963;51.444;6.528;2023-10-31T07:02:34;10.30;;;9.20;;
9848;SDS011;4963;51.444;6.528;2023-10-31T07:05:03;11.27;;;10.17;;
9848;SDS011;4963;51.444;6.528;2023-10-31T07:07:33;11.30;;;10.23;;
9848;SDS011;4963;51.444;6.528;2023-10-31T07:10:00;12.87;;;11.67;;
9848;SDS011;4963;51.444;6.528;2023-10-31T07:12:27;14.40;;;11.20;;
9848;SDS011;4963;51.444;6.528;2023-10-31T07:14:57;14.10;;;11.67;;
9848;SDS011;4963;51.444;6.528;2023-10-31T07:17:24;11.53;;;10.33;;
9848;SDS011;4963;51.444;6.528;2023-10-31T07:19:51;11.93;;;10.80;;
9848;SDS011;4963;51.444;6.528;2023-10-31T07:22:18;11.57;;;10.37;;
9848;SDS011;4963;51.444;6.528;2023-10-31T07:24:45;11.83;;;10.63;;
9848;SDS011;4963;51.444;6.528;2023-10-31T07:27:12;11.70;;;10.60;;
9848;SDS011;4963;51.444;6.528;2023-10-31T07:29:42;11.70;;;10.60;;
9848;SDS011;4963;51.444;6.528;2023-10-31T07:32:10;13.20;;;11.80;;
9848;SDS011;4963;51.444;6.528;2023-10-31T07:34:40;12.90;;;10.87;;
9848;SDS011;4963;51.444;6.528;2023-10-31T07:37:07;12.13;;;10.97;;
9848;SDS011;4963;51.444;6.528;2023-10-31T07:39:33;11.80;;;10.60;;
9848;SDS011;4963;51.444;6.528;2023-10-31T07:42:00;13.47;;;10.93;;
9848;SDS011;4963;51.444;6.528;2023-10-31T07:44:27;12.13;;;10.90;;
9848;SDS011;4963;51.444;6.528;2023-10-31T07:46:54;11.93;;;10.40;;
9848;SDS011;4963;51.444;6.528;2023-10-31T07:49:22;11.50;;;10.20;;
9848;SDS011;4963;51.444;6.528;2023-10-31T07:51:49;11.93;;;10.73;;
9848;SDS011;4963;51.444;6.528;2023-10-31T07:54:16;11.03;;;9.93;;
9848;SDS011;4963;51.444;6.528;2023-10-31T07:56:43;12.03;;;10.83;;
9848;SDS011;4963;51.444;6.528;2023-10-31T07:59:10;11.80;;;10.70;;
9848;SDS011;4963;51.444;6.528;2023-10-31T08:01:37;11.47;;;10.37;;
9848;SDS011;4963;51.444;6.528;2023-10-31T08:04:04;11.80;;;10.53;;
9848;SDS011;4963;51.444;6.528;2023-10-31T08:06:33;12.87;;;11.03;;
9848;SDS011;4963;51.444;6.528;2023-10-31T08:09:00;13.87;;;12.13;;
9848;SDS011;4963;51.444;6.528;2023-10-31T08:11:27;13.23;;;10.43;;
9848;SDS011;4963;51.444;6.528;2023-10-31T08:13:54;12.80;;;10.63;;
9848;SDS011;4963;51.444;6.528;2023-10-31T08:16:20;12.73;;;11.37;;
9848;SDS011;4963;51.444;6.528;2023-10-31T08:18:48;10.63;;;9.60;;
9848;SDS011;4963;51.444;6.528;2023-10-31T08:21:15;10.13;;;9.00;;
9848;SDS011;4963;51.444;6.528;2023-10-31T08:23:43;11.03;;;8.80;;
9848;SDS011;4963;51.444;6.528;2023-10-31T08:26:11;9.77;;;8.63;;
9848;SDS011;4963;51.444;6.528;2023-10-31T08:28:38;12.97;;;8.77;;
9848;SDS011;4963;51.444;6.528;2023-10-31T08:31:05;8.73;;;7.93;;
9848;SDS011;4963;51.444;6.528;2023-10-31T08:33:32;11.40;;;8.77;;
9848;SDS011;4963;51.444;6.528;2023-10-31T08:36:02;19.17;;;13.77;;
9848;SDS011;4963;51.444;6.528;2023-10-31T08:38:34;9.00;;;7.47;;
9848;SDS011;4963;51.444;6.528;2023-10-31T08:41:03;14.67;;;10.23;;
9848;SDS011;4963;51.444;6.528;2023-10-31T08:43:30;9.10;;;7.60;;
9848;SDS011;4963;51.444;6.528;2023-10-31T08:45:57;9.63;;;8.63;;
9848;SDS011;4963;51.444;6.528;2023-10-31T08:48:23;13.67;;;10.13;;
9848;SDS011;4963;51.444;6.528;2023-10-31T08:50:51;11.00;;;9.20;;
9848;SDS011;4963;51.444;6.528;2023-10-31T08:53:17;8.60;;;7.70;;
9848;SDS011;4963;51.444;6.528;2023-10-31T08:55:45;8.33;;;7.30;;
9848;SDS011;4963;51.444;6.528;2023-10-31T08:58:13;8.37;;;7.57;;
9848;SDS011;4963;51.444;6.528;2023-10-31T09:00:43;8.03;;;7.23;;
9848;SDS011;4963;51.444;6.528;2023-10-31T09:03:10;8.67;;;6.60;;
9848;SDS011;4963;51.444;6.528;2023-10-31T09:05:36;6.97;;;6.27;;
9848;SDS011;4963;51.444;6.528;2023-10-31T09:08:03;7.93;;;7.13;;
9848;SDS011;4963;51.444;6.528;2023-10-31T09:10:31;7.80;;;7.00;;
9848;SDS011;4963;51.444;6.528;2023-10-31T09:12:58;8.13;;;6.97;;
9848;SDS011;4963;51.444;6.528;2023-10-31T09:15:27;7.97;;;7.00;;
9848;SDS011;4963;51.444;6.528;2023-10-31T09:17:53;7.30;;;6.37;;
9848;SDS011;4963;51.444;6.528;2023-10-31T09:20:20;8.53;;;7.43;;
9848;SDS011;4963;51.444;6.528;2023-10-31T09:22:48;8.63;;;6.83;;
9848;SDS011;4963;51.444;6.528;2023-10-31T09:25:15;8.63;;;6.60;;
9848;SDS011;4963;51.444;6.528;2023-10-31T09:27:43;10.13;;;7.43;;
9848;SDS011;4963;51.444;6.528;2023-10-31T09:30:10;9.90;;;7.13;;
9848;SDS011;4963;51.444;6.528;2023-10-31T09:32:38;8.50;;;7.27;;
9848;SDS011;4963;51.444;6.528;2023-10-31T09:35:05;8.50;;;7.57;;
9848;SDS011;4963;51.444;6.528;2023-10-31T09:37:34;8.30;;;7.40;;
9848;SDS011;4963;51.444;6.528;2023-10-31T09:40:01;9.53;;;8.30;;
9848;SDS011;4963;51.444;6.528;2023-10-31T09:42:28;10.80;;;9.07;;
9848;SDS011;4963;51.444;6.528;2023-10-31T09:44:57;9.37;;;8.37;;
9848;SDS011;4963;51.444;6.528;2023-10-31T09:47:24;9.43;;;8.43;;
9848;SDS011;4963;51.444;6.528;2023-10-31T09:49:52;11.50;;;8.50;;
9848;SDS011;4963;51.444;6.528;2023-10-31T09:52:19;10.53;;;9.40;;
9848;SDS011;4963;51.444;6.528;2023-10-31T09:54:47;12.07;;;9.17;;
9848;SDS011;4963;51.444;6.528;2023-10-31T09:57:15;12.43;;;9.37;;
9848;SDS011;4963;51.444;6.528;2023-10-31T09:59:43;11.33;;;8.90;;
9848;SDS011;4963;51.444;6.528;2023-10-31T10:02:10;11.77;;;9.20;;
9848;SDS011;4963;51.444;6.528;2023-10-31T10:04:37;12.13;;;8.47;;
9848;SDS011;4963;51.444;6.528;2023-10-31T10:07:06;10.60;;;8.13;;
9848;SDS011;4963;51.444;6.528;2023-10-31T10:09:32;12.63;;;9.70;;
9848;SDS011;4963;51.444;6.528;2023-10-31T10:11:59;9.67;;;8.20;;
9848;SDS011;4963;51.444;6.528;2023-10-31T10:14:27;11.13;;;8.00;;
9848;SDS011;4963;51.444;6.528;2023-10-31T10:16:56;10.17;;;7.87;;
9848;SDS011;4963;51.444;6.528;2023-10-31T10:19:23;10.10;;;7.73;;
9848;SDS011;4963;51.444;6.528;2023-10-31T10:21:51;8.60;;;7.43;;
9848;SDS011;4963;51.444;6.528;2023-10-31T10:24:20;10.03;;;7.13;;
9848;SDS011;4963;51.444;6.528;2023-10-31T10:26:48;9.50;;;7.27;;
9848;SDS011;4963;51.444;6.528;2023-10-31T10:29:15;11.97;;;7.20;;
9848;SDS011;4963;51.444;6.528;2023-10-31T10:31:43;10.70;;;6.87;;
9848;SDS011;4963;51.444;6.528;2023-10-31T10:34:11;9.40;;;6.40;;
9848;SDS011;4963;51.444;6.528;2023-10-31T10:36:41;8.17;;;6.00;;
9848;SDS011;4963;51.444;6.528;2023-10-31T10:39:12;8.73;;;5.97;;
9848;SDS011;4963;51.444;6.528;2023-10-31T10:41:43;9.83;;;6.13;;
9848;SDS011;4963;51.444;6.528;2023-10-31T10:44:13;9.10;;;5.90;;
9848;SDS011;4963;51.444;6.528;2023-10-31T10:46:42;8.10;;;6.23;;
9848;SDS011;4963;51.444;6.528;2023-10-31T10:49:17;6.03;;;5.43;;
9848;SDS011;4963;51.444;6.528;2023-10-31T10:51:51;6.57;;;5.37;;
9848;SDS011;4963;51.444;6.528;2023-10-31T10:54:29;8.13;;;5.70;;
9848;SDS011;4963;51.444;6.528;2023-10-31T10:57:03;7.63;;;4.57;;
9848;SDS011;4963;51.444;6.528;2023-10-31T10:59:37;5.80;;;5.13;;
9848;SDS011;4963;51.444;6.528;2023-10-31T11:02:06;7.83;;;5.50;;
9848;SDS011;4963;51.444;6.528;2023-10-31T11:04:35;8.57;;;5.00;;
9848;SDS011;4963;51.444;6.528;2023-10-31T11:07:03;8.60;;;4.90;;
9848;SDS011;4963;51.444;6.528;2023-10-31T11:09:31;5.57;;;4.43;;
9848;SDS011;4963;51.444;6.528;2023-10-31T11:12:06;6.57;;;4.60;;
9848;SDS011;4963;51.444;6.528;2023-10-31T11:14:33;8.80;;;4.63;;
9848;SDS011;4963;51.444;6.528;2023-10-31T11:17:02;5.87;;;3.50;;
9848;SDS011;4963;51.444;6.528;2023-10-31T11:19:37;4.73;;;3.80;;
9848;SDS011;4963;51.444;6.528;2023-10-31T11:22:05;6.47;;;3.97;;
9848;SDS011;4963;51.444;6.528;2023-10-31T11:24:33;4.80;;;4.27;;
9848;SDS011;4963;51.444;6.528;2023-10-31T11:27:03;7.57;;;3.93;;
9848;SDS011;4963;51.444;6.528;2023-10-31T11:29:33;6.13;;;3.53;;
9848;SDS011;4963;51.444;6.528;2023-10-31T11:32:01;5.63;;;3.50;;
9848;SDS011;4963;51.444;6.528;2023-10-31T11:34:28;5.27;;;4.00;;
9848;SDS011;4963;51.444;6.528;2023-10-31T11:42:48;6.87;;;3.77;;
9848;SDS011;4963;51.444;6.528;2023-10-31T11:45:31;5.20;;;3.70;;
9848;SDS011;4963;51.444;6.528;2023-10-31T11:48:00;4.77;;;3.47;;
9848;SDS011;4963;51.444;6.528;2023-10-31T11:50:27;7.20;;;4.00;;
9848;SDS011;4963;51.444;6.528;2023-10-31T11:53:00;5.67;;;3.50;;
9848;SDS011;4963;51.444;6.528;2023-10-31T11:55:32;5.07;;;3.60;;
9848;SDS011;4963;51.444;6.528;2023-10-31T11:58:11;5.47;;;3.40;;
9848;SDS011;4963;51.444;6.528;2023-10-31T12:00:41;3.90;;;3.07;;
9848;SDS011;4963;51.444;6.528;2023-10-31T12:03:09;5.03;;;2.67;;
9848;SDS011;4963;51.444;6.528;2023-10-31T12:05:36;7.90;;;2.73;;
9848;SDS011;4963;51.444;6.528;2023-10-31T12:08:03;6.47;;;2.80;;
9848;SDS011;4963;51.444;6.528;2023-10-31T12:10:30;5.70;;;2.43;;
9848;SDS011;4963;51.444;6.528;2023-10-31T12:12:57;5.80;;;3.20;;
9848;SDS011;4963;51.444;6.528;2023-10-31T12:15:24;6.30;;;3.00;;
9848;SDS011;4963;51.444;6.528;2023-10-31T12:17:56;4.60;;;2.77;;
9848;SDS011;4963;51.444;6.528;2023-10-31T12:20:24;3.73;;;2.60;;
9848;SDS011;4963;51.444;6.528;2023-10-31T12:23:01;4.87;;;2.80;;
9848;SDS011;4963;51.444;6.528;2023-10-31T12:25:29;3.97;;;2.90;;
9848;SDS011;4963;51.444;6.528;2023-10-31T12:28:00;4.90;;;3.03;;
9848;SDS011;4963;51.444;6.528;2023-10-31T12:30:27;3.50;;;2.43;;
9848;SDS011;4963;51.444;6.528;2023-10-31T12:32:55;4.43;;;2.93;;
9848;SDS011;4963;51.444;6.528;2023-10-31T12:35:23;4.60;;;2.90;;
9848;SDS011;4963;51.444;6.528;2023-10-31T12:37:51;6.03;;;2.47;;
9848;SDS011;4963;51.444;6.528;2023-10-31T12:40:20;9.93;;;2.67;;
9848;SDS011;4963;51.444;6.528;2023-10-31T12:42:48;5.53;;;2.33;;
9848;SDS011;4963;51.444;6.528;2023-10-31T12:45:16;4.60;;;2.30;;
9848;SDS011;4963;51.444;6.528;2023-10-31T12:50:30;4.23;;;2.03;;
9848;SDS011;4963;51.444;6.528;2023-10-31T12:52:57;5.70;;;2.53;;
9848;SDS011;4963;51.444;6.528;2023-10-31T12:55:26;4.57;;;2.63;;
9848;SDS011;4963;51.444;6.528;2023-10-31T12:57:53;5.03;;;2.40;;
9848;SDS011;4963;51.444;6.528;2023-10-31T13:00:21;4.23;;;2.50;;
9848;SDS011;4963;51.444;6.528;2023-10-31T13:02:58;3.43;;;2.00;;
9848;SDS011;4963;51.444;6.528;2023-10-31T13:05:28;4.37;;;2.30;;
9848;SDS011;4963;51.444;6.528;2023-10-31T13:07:55;4.93;;;2.40;;
9848;SDS011;4963;51.444;6.528;2023-10-31T13:10:25;4.03;;;2.00;;
9848;SDS011;4963;51.444;6.528;2023-10-31T13:12:54;4.23;;;2.30;;
9848;SDS011;4963;51.444;6.528;2023-10-31T13:15:22;2.67;;;2.00;;
9848;SDS011;4963;51.444;6.528;2023-10-31T13:17:50;5.53;;;2.10;;
9848;SDS011;4963;51.444;6.528;2023-10-31T13:20:18;3.83;;;1.90;;
9848;SDS011;4963;51.444;6.528;2023-10-31T13:22:47;3.10;;;1.93;;
9848;SDS011;4963;51.444;6.528;2023-10-31T13:25:15;2.27;;;1.77;;
9848;SDS011;4963;51.444;6.528;2023-10-31T13:27:43;5.23;;;1.80;;
9848;SDS011;4963;51.444;6.528;2023-10-31T13:30:15;2.67;;;1.73;;
9848;SDS011;4963;51.444;6.528;2023-10-31T13:32:43;4.67;;;1.77;;
9848;SDS011;4963;51.444;6.528;2023-10-31T13:35:10;7.13;;;2.00;;
9848;SDS011;4963;51.444;6.528;2023-10-31T13:37:39;4.73;;;1.73;;
9848;SDS011;4963;51.444;6.528;2023-10-31T13:40:07;3.97;;;1.80;;
9848;SDS011;4963;51.444;6.528;2023-10-31T13:42:36;3.63;;;1.60;;
9848;SDS011;4963;51.444;6.528;2023-10-31T13:45:03;4.57;;;1.60;;
9848;SDS011;4963;51.444;6.528;2023-10-31T13:47:30;5.50;;;1.83;;
9848;SDS011;4963;51.444;6.528;2023-10-31T13:49:58;3.07;;;1.33;;
9848;SDS011;4963;51.444;6.528;2023-10-31T13:52:24;3.53;;;1.50;;
9848;SDS011;4963;51.444;6.528;2023-10-31T13:54:51;4.67;;;2.00;;
9848;SDS011;4963;51.444;6.528;2023-10-31T13:57:20;4.87;;;1.80;;
9848;SDS011;4963;51.444;6.528;2023-10-31T13:59:49;3.30;;;1.47;;
9848;SDS011;4963;51.444;6.528;2023-10-31T14:02:17;5.00;;;2.07;;
9848;SDS011;4963;51.444;6.528;2023-10-31T14:04:44;2.83;;;1.40;;
9848;SDS011;4963;51.444;6.528;2023-10-31T14:07:12;4.70;;;1.50;;
9848;SDS011;4963;51.444;6.528;2023-10-31T14:09:46;4.27;;;1.73;;
9848;SDS011;4963;51.444;6.528;2023-10-31T14:12:14;3.47;;;1.67;;
9848;SDS011;4963;51.444;6.528;2023-10-31T14:14:42;3.50;;;1.60;;
9848;SDS011;4963;51.444;6.528;2023-10-31T14:17:09;2.37;;;1.80;;
9848;SDS011;4963;51.444;6.528;2023-10-31T14:19:38;3.40;;;1.80;;
9848;SDS011;4963;51.444;6.528;2023-10-31T14:22:05;5.30;;;1.60;;
9848;SDS011;4963;51.444;6.528;2023-10-31T14:24:32;2.13;;;1.80;;
9848;SDS011;4963;51.444;6.528;2023-10-31T14:26:59;2.87;;;1.90;;
9848;SDS011;4963;51.444;6.528;2023-10-31T14:29:26;3.50;;;1.90;;
9848;SDS011;4963;51.444;6.528;2023-10-31T14:31:55;3.97;;;1.70;;
9848;SDS011;4963;51.444;6.528;2023-10-31T14:34:22;2.93;;;1.77;;
9848;SDS011;4963;51.444;6.528;2023-10-31T14:36:49;2.73;;;1.83;;
9848;SDS011;4963;51.444;6.528;2023-10-31T14:39:16;4.27;;;1.90;;
9848;SDS011;4963;51.444;6.528;2023-10-31T14:41:43;3.90;;;2.07;;
9848;SDS011;4963;51.444;6.528;2023-10-31T14:44:10;4.17;;;2.10;;
9848;SDS011;4963;51.444;6.528;2023-10-31T14:46:40;3.27;;;1.80;;
9848;SDS011;4963;51.444;6.528;2023-10-31T14:49:08;4.07;;;1.87;;
9848;SDS011;4963;51.444;6.528;2023-10-31T14:51:35;4.27;;;1.90;;
9848;SDS011;4963;51.444;6.528;2023-10-31T14:54:03;3.70;;;2.30;;
9848;SDS011;4963;51.444;6.528;2023-10-31T14:56:30;6.03;;;2.23;;
9848;SDS011;4963;51.444;6.528;2023-10-31T14:58:57;4.50;;;2.40;;
9848;SDS011;4963;51.444;6.528;2023-10-31T15:01:24;3.70;;;2.20;;
9848;SDS011;4963;51.444;6.528;2023-10-31T15:03:51;7.00;;;2.33;;
9848;SDS011;4963;51.444;6.528;2023-10-31T15:06:20;4.30;;;2.10;;
9848;SDS011;4963;51.444;6.528;2023-10-31T15:08:50;3.60;;;2.20;;
9848;SDS011;4963;51.444;6.528;2023-10-31T15:11:18;2.77;;;2.17;;
9848;SDS011;4963;51.444;6.528;2023-10-31T15:13:45;6.03;;;2.03;;
9848;SDS011;4963;51.444;6.528;2023-10-31T15:16:12;5.13;;;2.67;;
9848;SDS011;4963;51.444;6.528;2023-10-31T15:18:39;5.40;;;2.30;;
9848;SDS011;4963;51.444;6.528;2023-10-31T15:21:06;5.40;;;2.67;;
9848;SDS011;4963;51.444;6.528;2023-10-31T15:23:34;6.20;;;2.43;;